createdAt,value
2023-09-12T00:00:11.149Z,9.32
2023-09-12T00:02:40.430Z,9.32
2023-09-12T00:05:09.014Z,9.90
2023-09-12T00:07:37.130Z,8.77
2023-09-12T00:10:05.397Z,8.02
2023-09-12T00:12:33.229Z,8.20
2023-09-12T00:15:01.043Z,8.27
2023-09-12T00:17:28.988Z,8.40
2023-09-12T00:19:58.144Z,8.30
2023-09-12T00:22:25.880Z,9.57
2023-09-12T00:24:53.715Z,8.80
2023-09-12T00:27:21.483Z,8.48
2023-09-12T00:29:49.374Z,9.13
2023-09-12T00:32:17.138Z,9.98
2023-09-12T00:34:44.975Z,10.27
2023-09-12T00:37:14.136Z,10.38
2023-09-12T00:39:41.936Z,10.77
2023-09-12T00:42:09.730Z,9.73
2023-09-12T00:44:37.465Z,9.50
2023-09-12T00:47:05.649Z,11.25
2023-09-12T00:49:34.636Z,11.23
2023-09-12T00:52:03.728Z,11.43
2023-09-12T00:54:33.007Z,11.48
2023-09-12T00:57:00.850Z,10.88
2023-09-12T00:59:29.011Z,11.57
2023-09-12T01:01:57.523Z,12.25
2023-09-12T01:04:34.821Z,11.20
2023-09-12T01:07:02.976Z,12.20
2023-09-12T01:09:35.069Z,11.13
2023-09-12T01:12:04.105Z,11.10
2023-09-12T01:14:32.073Z,11.00
2023-09-12T01:17:00.642Z,11.52
2023-09-12T01:19:28.387Z,11.90
2023-09-12T01:22:24.612Z,10.45
2023-09-12T01:25:10.726Z,10.93
2023-09-12T01:30:10.683Z,10.43
2023-09-12T01:32:38.979Z,9.73
2023-09-12T01:35:10.722Z,11.55
2023-09-12T01:37:38.452Z,11.90
2023-09-12T01:40:08.016Z,12.18
2023-09-12T01:42:38.813Z,10.38
2023-09-12T01:45:11.351Z,11.95
2023-09-12T01:47:39.496Z,11.70
2023-09-12T01:50:08.406Z,12.20
2023-09-12T01:52:36.473Z,12.07
2023-09-12T01:55:04.921Z,12.38
2023-09-12T01:57:33.829Z,9.82
2023-09-12T02:00:01.655Z,10.77
2023-09-12T02:02:30.751Z,10.95
2023-09-12T02:05:07.514Z,12.00
2023-09-12T02:07:40.168Z,11.18
2023-09-12T02:10:08.903Z,11.90
2023-09-12T02:12:36.675Z,12.07
2023-09-12T02:15:04.877Z,11.95
2023-09-12T02:17:36.871Z,12.32
2023-09-12T02:20:07.140Z,12.07
2023-09-12T02:22:34.888Z,12.20
2023-09-12T02:25:05.691Z,11.85
2023-09-12T02:27:33.675Z,12.60
2023-09-12T02:30:01.434Z,12.88
2023-09-12T02:32:31.001Z,12.05
2023-09-12T02:35:00.120Z,13.73
2023-09-12T02:37:27.855Z,13.77
2023-09-12T02:39:55.620Z,13.10
2023-09-12T02:42:23.638Z,11.95
2023-09-12T02:44:53.567Z,11.20
2023-09-12T02:47:21.333Z,9.73
2023-09-12T02:49:49.053Z,8.32
2023-09-12T02:52:18.146Z,9.55
2023-09-12T02:54:46.115Z,10.23
2023-09-12T02:57:14.373Z,11.18
2023-09-12T02:59:42.390Z,9.32
2023-09-12T03:02:10.141Z,8.02
2023-09-12T03:04:38.284Z,8.27
2023-09-12T03:07:06.020Z,8.52
2023-09-12T03:09:35.278Z,8.65
2023-09-12T03:12:03.502Z,9.07
2023-09-12T03:14:32.575Z,8.68
2023-09-12T03:17:02.236Z,8.95
2023-09-12T03:19:31.990Z,11.27
2023-09-12T03:22:02.127Z,9.50
2023-09-12T03:24:30.145Z,9.45
2023-09-12T03:26:59.470Z,10.05
2023-09-12T03:29:27.351Z,12.45
2023-09-12T03:31:55.088Z,13.73
2023-09-12T03:34:22.834Z,14.25
2023-09-12T03:36:50.628Z,13.45
2023-09-12T03:39:20.092Z,13.52
2023-09-12T03:41:47.814Z,14.77
2023-09-12T03:44:16.902Z,14.70
2023-09-12T03:46:44.746Z,13.52
2023-09-12T03:49:12.484Z,14.95
2023-09-12T03:51:40.223Z,15.82
2023-09-12T03:54:08.418Z,15.45
2023-09-12T03:56:36.326Z,16.45
2023-09-12T03:59:04.312Z,15.85
2023-09-12T04:01:33.385Z,15.85
2023-09-12T04:04:03.974Z,15.82
2023-09-12T04:06:32.344Z,15.75
2023-09-12T04:09:00.125Z,15.52
2023-09-12T04:11:39.770Z,15.98
2023-09-12T04:14:13.790Z,15.82
2023-09-12T04:16:42.926Z,16.42
2023-09-12T04:19:10.753Z,17.67
2023-09-12T04:21:38.653Z,17.05
2023-09-12T04:24:07.382Z,16.00
2023-09-12T04:26:35.320Z,16.73
2023-09-12T04:29:03.103Z,17.00
2023-09-12T04:31:30.865Z,16.50
2023-09-12T04:33:59.993Z,16.77
2023-09-12T04:36:27.832Z,15.52
2023-09-12T04:38:55.589Z,15.68
2023-09-12T04:41:23.859Z,16.30
2023-09-12T04:43:51.592Z,16.00
2023-09-12T04:46:19.405Z,15.98
2023-09-12T04:48:47.360Z,14.77
2023-09-12T04:51:16.744Z,15.63
2023-09-12T04:53:45.633Z,14.73
2023-09-12T04:56:13.410Z,15.70
2023-09-12T04:58:41.467Z,16.02
2023-09-12T05:01:09.676Z,14.85
2023-09-12T05:03:38.270Z,15.95
2023-09-12T05:06:06.366Z,15.05
2023-09-12T05:08:35.904Z,14.55
2023-09-12T05:11:04.093Z,14.48
2023-09-12T05:13:31.890Z,14.48
2023-09-12T05:15:59.762Z,14.45
2023-09-12T05:18:27.579Z,14.05
2023-09-12T05:20:55.464Z,15.23
2023-09-12T05:23:23.216Z,14.57
2023-09-12T05:25:55.673Z,14.05
2023-09-12T05:28:23.456Z,12.15
2023-09-12T05:30:52.542Z,12.57
2023-09-12T05:33:20.609Z,13.77
2023-09-12T05:35:48.939Z,13.88
2023-09-12T05:38:16.880Z,15.35
2023-09-12T05:40:44.627Z,14.10
2023-09-12T05:43:15.355Z,13.20
2023-09-12T05:45:43.077Z,12.50
2023-09-12T05:48:11.435Z,13.75
2023-09-12T05:50:39.394Z,13.15
2023-09-12T05:53:07.110Z,12.48
2023-09-12T05:55:35.000Z,13.13
2023-09-12T05:58:04.944Z,13.90
2023-09-12T06:00:34.210Z,13.55
2023-09-12T06:03:02.252Z,13.40
2023-09-12T06:05:30.029Z,13.27
2023-09-12T06:07:57.742Z,14.55
2023-09-12T06:10:25.489Z,12.98
2023-09-12T06:12:53.716Z,19.45
2023-09-12T06:15:21.509Z,13.68
2023-09-12T06:17:50.754Z,13.05
2023-09-12T06:20:18.562Z,13.27
2023-09-12T06:22:46.280Z,14.10
2023-09-12T06:25:14.019Z,13.63
2023-09-12T06:27:41.919Z,13.00
2023-09-12T06:30:10.688Z,12.80
2023-09-12T06:32:39.698Z,11.15
2023-09-12T06:35:12.320Z,10.35
2023-09-12T06:37:40.346Z,10.57
2023-09-12T06:40:09.712Z,9.85
2023-09-12T06:42:37.492Z,11.48
2023-09-12T06:45:05.675Z,11.43
2023-09-12T06:47:35.413Z,10.15
2023-09-12T06:50:04.871Z,10.50
2023-09-12T06:52:35.082Z,10.63
2023-09-12T06:55:02.790Z,10.35
2023-09-12T06:57:32.581Z,11.00
2023-09-12T07:00:00.403Z,10.95
2023-09-12T07:02:29.002Z,10.70
2023-09-12T07:04:57.926Z,12.43
2023-09-12T07:07:25.659Z,12.93
2023-09-12T07:10:01.680Z,12.18
2023-09-12T07:12:35.954Z,11.85
2023-09-12T07:15:03.946Z,12.38
2023-09-12T07:17:31.977Z,11.73
2023-09-12T07:20:03.521Z,11.90
2023-09-12T07:22:31.293Z,13.38
2023-09-12T07:25:03.149Z,13.38
2023-09-12T07:27:31.232Z,13.15
2023-09-12T07:29:59.040Z,12.10
2023-09-12T07:32:26.800Z,12.82
2023-09-12T07:34:54.557Z,13.38
2023-09-12T07:37:22.320Z,12.80
2023-09-12T07:39:50.138Z,13.30
2023-09-12T07:42:23.788Z,13.93
2023-09-12T07:44:51.709Z,12.13
2023-09-12T07:47:19.469Z,13.05
2023-09-12T07:49:47.213Z,13.00
2023-09-12T07:52:15.306Z,13.13
2023-09-12T07:54:43.125Z,13.32
2023-09-12T07:57:11.388Z,12.98
2023-09-12T07:59:40.607Z,12.63
2023-09-12T08:02:09.178Z,12.75
2023-09-12T08:04:37.543Z,11.18
2023-09-12T08:07:05.809Z,11.57
2023-09-12T08:09:51.873Z,12.55
2023-09-12T08:14:49.153Z,11.90
2023-09-12T08:17:17.737Z,13.32
2023-09-12T08:19:45.701Z,12.85
2023-09-12T08:22:14.412Z,11.73
2023-09-12T08:24:42.286Z,12.35
2023-09-12T08:27:10.260Z,12.75
2023-09-12T08:29:38.073Z,12.98
2023-09-12T08:32:07.590Z,12.02
2023-09-12T08:34:35.539Z,14.00
2023-09-12T08:37:03.299Z,12.88
2023-09-12T08:39:42.640Z,12.30
2023-09-12T08:42:14.307Z,12.20
2023-09-12T08:44:45.533Z,12.23
2023-09-12T08:47:16.395Z,12.25
2023-09-12T08:49:44.925Z,13.20
2023-09-12T08:52:12.877Z,12.88
2023-09-12T08:54:40.727Z,13.93
2023-09-12T08:57:09.053Z,13.68
2023-09-12T08:59:37.142Z,13.38
2023-09-12T09:02:05.368Z,12.77
2023-09-12T09:04:35.715Z,12.75
2023-09-12T09:07:03.826Z,14.23
2023-09-12T09:09:32.437Z,13.25
2023-09-12T09:12:00.225Z,12.27
2023-09-12T09:14:27.985Z,13.48
2023-09-12T09:16:55.925Z,12.73
2023-09-12T09:19:23.769Z,11.52
2023-09-12T09:21:52.949Z,12.40
2023-09-12T09:24:22.978Z,9.88
2023-09-12T09:26:52.034Z,7.53
2023-09-12T09:29:20.982Z,9.98
2023-09-12T09:31:49.862Z,8.70
2023-09-12T09:34:18.811Z,7.97
2023-09-12T09:36:50.010Z,9.18
2023-09-12T09:39:22.703Z,8.65
2023-09-12T09:41:51.019Z,7.25
2023-09-12T09:44:19.202Z,7.50
2023-09-12T09:46:47.879Z,7.15
2023-09-12T09:49:16.995Z,7.18
2023-09-12T09:51:45.169Z,7.18
2023-09-12T09:54:13.794Z,7.10
2023-09-12T09:56:49.120Z,5.75
2023-09-12T09:59:18.338Z,5.35
2023-09-12T10:01:47.039Z,4.85
2023-09-12T10:04:14.875Z,5.22
2023-09-12T10:06:45.656Z,5.28
2023-09-12T10:09:14.537Z,4.47
2023-09-12T10:11:44.642Z,4.47
2023-09-12T10:14:14.046Z,4.45
2023-09-12T10:16:47.588Z,5.15
2023-09-12T10:19:18.336Z,3.45
2023-09-12T10:21:50.816Z,4.72
2023-09-12T10:24:18.922Z,4.68
2023-09-12T10:26:47.334Z,4.85
2023-09-12T10:29:17.035Z,5.75
2023-09-12T10:31:45.058Z,5.03
2023-09-12T10:34:15.824Z,4.97
2023-09-12T10:36:46.454Z,3.30
2023-09-12T10:39:15.949Z,4.63
2023-09-12T10:41:43.978Z,4.55
2023-09-12T10:44:14.049Z,4.70
2023-09-12T10:46:43.808Z,3.67
2023-09-12T10:49:13.585Z,4.47
2023-09-12T10:51:42.238Z,4.88
2023-09-12T10:54:11.111Z,3.97
2023-09-12T10:56:38.857Z,4.10
2023-09-12T10:59:16.462Z,4.25
2023-09-12T11:01:48.232Z,3.80
2023-09-12T11:04:39.049Z,4.63
2023-09-12T11:07:31.994Z,4.38
2023-09-12T11:10:20.715Z,4.45
2023-09-12T11:12:50.018Z,3.92
2023-09-12T11:15:18.292Z,4.72
2023-09-12T11:17:48.467Z,4.43
2023-09-12T11:20:17.920Z,6.10
2023-09-12T11:22:47.194Z,5.55
2023-09-12T11:25:20.127Z,4.65
2023-09-12T11:28:04.939Z,5.03
2023-09-12T11:30:33.281Z,5.43
2023-09-12T11:33:06.514Z,5.53
2023-09-12T11:35:39.562Z,6.05
2023-09-12T11:38:12.492Z,6.00
2023-09-12T11:40:44.950Z,6.35
2023-09-12T11:43:22.483Z,6.32
2023-09-12T11:45:50.335Z,5.65
2023-09-12T11:48:19.918Z,5.40
2023-09-12T11:50:52.253Z,4.88
2023-09-12T11:55:52.445Z,5.20
2023-09-12T11:58:20.813Z,5.45
2023-09-12T12:00:50.410Z,5.32
2023-09-12T12:03:21.131Z,5.05
2023-09-12T12:05:49.347Z,6.05
2023-09-12T12:10:52.261Z,5.32
2023-09-12T12:13:23.839Z,4.82
2023-09-12T12:15:52.408Z,4.88
2023-09-12T12:18:21.949Z,5.30
2023-09-12T12:20:49.811Z,5.15
2023-09-12T12:23:17.613Z,5.32
2023-09-12T12:25:45.543Z,6.43
2023-09-12T12:28:13.572Z,5.75
2023-09-12T12:30:41.570Z,5.60
2023-09-12T12:34:00.839Z,5.13
2023-09-12T12:36:03.597Z,4.85
2023-09-12T12:38:36.362Z,5.57
2023-09-12T12:41:07.382Z,5.00
2023-09-12T12:43:35.226Z,5.45
2023-09-12T12:46:03.584Z,4.80
2023-09-12T12:48:32.440Z,5.70
2023-09-12T12:51:00.734Z,4.90
2023-09-12T12:53:51.950Z,5.22
2023-09-12T12:56:23.344Z,4.75
2023-09-12T12:58:52.444Z,5.43
2023-09-12T13:01:20.822Z,5.30
2023-09-12T13:03:51.247Z,5.88
2023-09-12T13:06:21.106Z,5.05
2023-09-12T13:08:51.661Z,4.90
2023-09-12T13:11:22.510Z,4.90
2023-09-12T13:13:50.852Z,5.68
2023-09-12T13:16:19.243Z,5.25
2023-09-12T13:18:47.392Z,4.53
2023-09-12T13:21:15.352Z,4.97
2023-09-12T13:23:43.353Z,5.10
2023-09-12T13:26:12.869Z,5.22
2023-09-12T13:28:42.866Z,4.43
2023-09-12T13:31:10.710Z,5.07
2023-09-12T13:33:38.585Z,4.88
2023-09-12T13:36:06.972Z,4.25
2023-09-12T13:38:34.760Z,4.68
2023-09-12T13:41:02.580Z,4.78
2023-09-12T13:43:32.674Z,4.35
2023-09-12T13:46:00.584Z,4.88
2023-09-12T13:48:28.645Z,4.78
2023-09-12T13:50:56.461Z,4.38
2023-09-12T13:53:24.218Z,3.97
2023-09-12T13:56:01.584Z,4.75
2023-09-12T13:58:43.276Z,5.40
2023-09-12T14:01:25.834Z,4.75
2023-09-12T14:03:59.276Z,3.47
2023-09-12T14:06:27.578Z,3.88
2023-09-12T14:08:55.660Z,4.57
2023-09-12T14:11:31.545Z,4.50
2023-09-12T14:14:15.147Z,4.40
2023-09-12T14:16:47.552Z,4.40
2023-09-12T14:19:16.896Z,4.25
2023-09-12T14:21:46.406Z,4.15
2023-09-12T14:24:14.690Z,3.95
2023-09-12T14:26:42.730Z,3.75
2023-09-12T14:29:12.694Z,4.40
2023-09-12T14:31:40.614Z,4.13
2023-09-12T14:34:09.358Z,4.22
2023-09-12T14:36:37.517Z,4.65
2023-09-12T14:39:05.640Z,4.45
2023-09-12T14:41:33.488Z,4.18
2023-09-12T14:44:01.281Z,4.35
2023-09-12T14:46:30.555Z,4.55
2023-09-12T14:49:02.607Z,4.45
2023-09-12T14:51:34.152Z,4.70
2023-09-12T14:54:02.985Z,4.45
2023-09-12T14:56:33.433Z,4.25
2023-09-12T14:59:01.701Z,4.47
2023-09-12T15:01:31.398Z,4.47
2023-09-12T15:03:59.384Z,4.63
2023-09-12T15:06:27.303Z,4.75
2023-09-12T15:08:55.350Z,4.80
2023-09-12T15:11:23.191Z,4.65
2023-09-12T15:13:51.291Z,4.95
2023-09-12T15:16:19.411Z,4.15
2023-09-12T15:18:50.456Z,4.95
2023-09-12T15:21:18.392Z,4.80
2023-09-12T15:23:46.475Z,4.70
2023-09-12T15:26:14.575Z,3.50
2023-09-12T15:28:42.585Z,4.00
2023-09-12T15:31:10.601Z,5.15
2023-09-12T15:33:38.514Z,4.20
2023-09-12T15:36:07.941Z,4.30
2023-09-12T15:38:36.047Z,4.25
2023-09-12T15:41:04.242Z,4.38
2023-09-12T15:43:32.011Z,4.47
2023-09-12T15:45:59.846Z,4.20
2023-09-12T15:48:27.727Z,5.10
2023-09-12T15:50:56.718Z,4.90
2023-09-12T15:53:26.366Z,4.80
2023-09-12T15:55:54.293Z,6.65
2023-09-12T15:58:22.129Z,4.25
2023-09-12T16:00:50.242Z,4.13
2023-09-12T16:03:18.347Z,4.63
2023-09-12T16:05:48.267Z,3.85
2023-09-12T16:08:19.358Z,4.18
2023-09-12T16:10:48.505Z,3.78
2023-09-12T16:13:16.323Z,3.67
2023-09-12T16:15:44.112Z,3.45
2023-09-12T16:18:11.944Z,4.05
2023-09-12T16:20:39.720Z,3.65
2023-09-12T16:23:07.474Z,3.10
2023-09-12T16:25:35.710Z,3.53
2023-09-12T16:28:05.620Z,3.75
2023-09-12T16:30:33.747Z,3.15
2023-09-12T16:33:01.840Z,3.88
2023-09-12T16:35:30.045Z,4.07
2023-09-12T16:37:58.021Z,4.15
2023-09-12T16:40:25.817Z,3.65
2023-09-12T16:42:55.804Z,3.97
2023-09-12T16:45:25.100Z,4.00
2023-09-12T16:47:52.916Z,4.00
2023-09-12T16:50:21.277Z,3.53
2023-09-12T16:52:49.049Z,3.67
2023-09-12T16:55:17.467Z,4.07
2023-09-12T16:57:45.242Z,3.67
2023-09-12T17:00:14.191Z,3.90
2023-09-12T17:02:45.177Z,3.80
2023-09-12T17:05:13.237Z,4.00
2023-09-12T17:07:41.071Z,4.30
2023-09-12T17:10:09.555Z,3.63
2023-09-12T17:12:37.854Z,3.83
2023-09-12T17:15:06.858Z,4.32
2023-09-12T17:17:34.844Z,4.32
2023-09-12T17:20:04.088Z,4.13
2023-09-12T17:22:31.866Z,4.70
2023-09-12T17:24:59.890Z,4.13
2023-09-12T17:27:30.160Z,4.35
2023-09-12T17:29:58.032Z,5.25
2023-09-12T17:32:28.594Z,4.45
2023-09-12T17:34:56.970Z,4.10
2023-09-12T17:37:26.146Z,4.32
2023-09-12T17:39:54.182Z,4.18
2023-09-12T17:42:22.192Z,4.30
2023-09-12T17:44:49.955Z,4.57
2023-09-12T17:47:17.955Z,4.85
2023-09-12T17:49:45.842Z,5.25
2023-09-12T17:52:13.643Z,5.22
2023-09-12T17:54:42.830Z,6.32
2023-09-12T17:57:11.033Z,6.82
2023-09-12T17:59:40.711Z,6.75
2023-09-12T18:02:08.915Z,5.82
2023-09-12T18:04:37.189Z,6.00
2023-09-12T18:07:06.037Z,5.88
2023-09-12T18:09:35.645Z,5.38
2023-09-12T18:12:05.423Z,4.80
2023-09-12T18:14:33.199Z,5.10
2023-09-12T18:17:01.243Z,4.68
2023-09-12T18:19:29.371Z,4.45
2023-09-12T18:21:57.341Z,4.57
2023-09-12T18:24:27.719Z,4.00
2023-09-12T18:26:55.579Z,4.60
2023-09-12T18:29:24.820Z,4.18
2023-09-12T18:31:52.857Z,4.28
2023-09-12T18:34:22.133Z,4.07
2023-09-12T18:36:50.288Z,4.80
2023-09-12T18:39:19.019Z,4.95
2023-09-12T18:41:47.859Z,4.60
2023-09-12T18:44:15.830Z,6.15
2023-09-12T18:46:45.661Z,4.97
2023-09-12T18:49:13.754Z,5.18
2023-09-12T18:51:42.627Z,5.07
2023-09-12T18:54:19.809Z,4.32
2023-09-12T18:56:47.805Z,5.35
2023-09-12T18:59:15.666Z,4.47
2023-09-12T19:01:45.103Z,5.00
2023-09-12T19:04:26.282Z,5.70
2023-09-12T19:06:54.857Z,5.20
2023-09-12T19:09:22.709Z,6.30
2023-09-12T19:11:51.322Z,6.55
2023-09-12T19:14:19.336Z,6.00
2023-09-12T19:16:48.743Z,5.32
2023-09-12T19:19:16.535Z,5.47
2023-09-12T19:21:44.416Z,6.22
2023-09-12T19:24:12.983Z,5.90
2023-09-12T19:26:40.821Z,6.30
2023-09-12T19:29:08.630Z,6.10
2023-09-12T19:31:36.505Z,6.47
2023-09-12T19:34:06.292Z,6.03
2023-09-12T19:36:34.655Z,6.78
2023-09-12T19:39:03.104Z,6.72
2023-09-12T19:41:32.248Z,7.35
2023-09-12T19:44:00.248Z,7.20
2023-09-12T19:46:28.053Z,6.13
2023-09-12T19:48:59.204Z,5.55
2023-09-12T19:51:28.772Z,6.15
2023-09-12T19:53:56.611Z,7.78
2023-09-12T19:56:24.446Z,6.57
2023-09-12T19:58:52.330Z,5.97
2023-09-12T20:01:20.265Z,5.80
2023-09-12T20:03:48.604Z,5.47
2023-09-12T20:06:16.994Z,6.47
2023-09-12T20:08:46.505Z,6.30
2023-09-12T20:11:14.388Z,6.50
2023-09-12T20:16:16.252Z,6.40
2023-09-12T20:18:44.627Z,6.88
2023-09-12T20:21:12.546Z,8.80
2023-09-12T20:23:40.660Z,8.60
2023-09-12T20:26:10.636Z,7.20
2023-09-12T20:28:39.501Z,7.10
2023-09-12T20:31:07.522Z,7.60
2023-09-12T20:33:35.500Z,8.38
2023-09-12T20:36:04.172Z,7.72
2023-09-12T20:38:32.070Z,7.88
2023-09-12T20:40:59.891Z,7.95
2023-09-12T20:43:30.650Z,9.05
2023-09-12T20:45:58.576Z,8.98
2023-09-12T20:48:26.543Z,8.82
2023-09-12T20:50:55.400Z,8.25
2023-09-12T20:53:23.228Z,9.25
2023-09-12T20:55:51.086Z,9.45
2023-09-12T20:58:18.918Z,10.18
2023-09-12T21:00:48.193Z,9.65
2023-09-12T21:03:16.093Z,9.18
2023-09-12T21:05:46.033Z,9.55
2023-09-12T21:08:14.406Z,8.93
2023-09-12T21:10:42.405Z,9.90
2023-09-12T21:13:10.946Z,9.15
2023-09-12T21:15:39.007Z,8.88
2023-09-12T21:18:08.563Z,9.35
2023-09-12T21:20:36.346Z,8.50
2023-09-12T21:23:04.759Z,9.15
2023-09-12T21:25:32.501Z,8.60
2023-09-12T21:28:00.339Z,9.55
2023-09-12T21:30:28.355Z,8.60
2023-09-12T21:32:56.250Z,9.25
2023-09-12T21:35:25.530Z,10.13
2023-09-12T21:37:53.330Z,9.77
2023-09-12T21:40:22.154Z,10.35
2023-09-12T21:42:50.093Z,10.38
2023-09-12T21:45:17.936Z,9.75
2023-09-12T21:47:46.718Z,9.35
2023-09-12T21:50:18.106Z,9.73
2023-09-12T21:52:47.273Z,8.73
2023-09-12T21:55:15.088Z,9.55
2023-09-12T21:57:42.904Z,8.48
2023-09-12T22:00:23.886Z,8.30
2023-09-12T22:02:52.771Z,9.13
2023-09-12T22:05:21.138Z,8.27
2023-09-12T22:07:50.395Z,8.27
2023-09-12T22:10:18.816Z,7.80
2023-09-12T22:12:48.990Z,7.95
2023-09-12T22:15:17.813Z,7.10
2023-09-12T22:17:45.795Z,7.10
2023-09-12T22:20:16.886Z,7.30
2023-09-12T22:22:46.071Z,7.07
2023-09-12T22:25:15.552Z,7.28
2023-09-12T22:27:44.182Z,7.70
2023-09-12T22:30:12.315Z,7.28
2023-09-12T22:32:40.911Z,7.80
2023-09-12T22:35:09.707Z,7.05
2023-09-12T22:37:37.592Z,6.07
2023-09-12T22:40:07.940Z,6.35
2023-09-12T22:42:38.825Z,6.28
2023-09-12T22:45:08.162Z,6.80
2023-09-12T22:47:35.981Z,5.72
2023-09-12T22:50:07.864Z,6.15
2023-09-12T22:52:35.813Z,6.05
2023-09-12T22:55:05.853Z,6.25
2023-09-12T22:57:34.160Z,5.80
2023-09-12T23:00:06.486Z,7.07
2023-09-12T23:02:34.352Z,6.95
2023-09-12T23:05:02.408Z,6.63
2023-09-12T23:07:30.160Z,6.20
2023-09-12T23:09:58.069Z,6.30
2023-09-12T23:12:28.519Z,7.38
2023-09-12T23:14:59.339Z,7.32
2023-09-12T23:17:28.571Z,7.20
2023-09-12T23:19:56.370Z,7.25
2023-09-12T23:22:24.179Z,7.70
2023-09-12T23:24:51.970Z,8.68
2023-09-12T23:27:19.848Z,7.97
2023-09-12T23:29:47.614Z,10.35
2023-09-12T23:32:15.508Z,10.40
2023-09-12T23:34:44.704Z,11.23
2023-09-12T23:37:13.165Z,11.43
2023-09-12T23:39:41.111Z,11.73
2023-09-12T23:42:08.915Z,10.95
2023-09-12T23:44:36.847Z,12.15
2023-09-12T23:47:04.887Z,12.32
2023-09-12T23:49:32.641Z,11.25
2023-09-12T23:52:01.864Z,13.15
2023-09-12T23:54:30.686Z,12.10
2023-09-12T23:56:58.615Z,12.45
2023-09-12T23:59:26.402Z,12.38
